sensor_id;sensor_type;location;lat;lon;timestamp;pressure;altitude;pressure_sealevel;temperature;humidity
68077;BME280;54866;53.458;14.540;2023-02-13T00:01:37;102711.90;;;5.38;100.00
68077;BME280;54866;53.458;14.540;2023-02-13T00:04:06;102709.45;;;5.40;100.00
68077;BME280;54866;53.458;14.540;2023-02-13T00:06:36;102704.57;;;5.39;100.00
68077;BME280;54866;53.458;14.540;2023-02-13T00:09:05;102706.61;;;5.41;100.00
68077;BME280;54866;53.458;14.540;2023-02-13T00:11:38;102711.83;;;5.42;100.00
68077;BME280;54866;53.458;14.540;2023-02-13T00:14:07;102710.59;;;5.42;100.00
68077;BME280;54866;53.458;14.540;2023-02-13T00:16:36;102710.94;;;5.42;100.00
68077;BME280;54866;53.458;14.540;2023-02-13T00:19:06;102704.65;;;5.42;100.00
68077;BME280;54866;53.458;14.540;2023-02-13T00:21:35;102704.30;;;5.42;100.00
68077;BME280;54866;53.458;14.540;2023-02-13T00:24:06;102702.57;;;5.41;100.00
68077;BME280;54866;53.458;14.540;2023-02-13T00:26:35;102703.70;;;5.38;100.00
68077;BME280;54866;53.458;14.540;2023-02-13T00:29:04;102708.23;;;5.39;100.00
68077;BME280;54866;53.458;14.540;2023-02-13T00:31:34;102702.52;;;5.36;100.00
68077;BME280;54866;53.458;14.540;2023-02-13T00:34:03;102706.89;;;5.36;100.00
68077;BME280;54866;53.458;14.540;2023-02-13T00:36:32;102707.97;;;5.35;100.00
68077;BME280;54866;53.458;14.540;2023-02-13T00:39:02;102709.91;;;5.34;100.00
68077;BME280;54866;53.458;14.540;2023-02-13T00:41:31;102707.67;;;5.33;100.00
68077;BME280;54866;53.458;14.540;2023-02-13T00:44:01;102703.70;;;5.31;100.00
68077;BME280;54866;53.458;14.540;2023-02-13T00:46:30;102704.63;;;5.29;100.00
68077;BME280;54866;53.458;14.540;2023-02-13T00:48:59;102701.01;;;5.27;100.00
68077;BME280;54866;53.458;14.540;2023-02-13T00:51:28;102701.56;;;5.26;100.00
68077;BME280;54866;53.458;14.540;2023-02-13T00:53:58;102701.75;;;5.25;100.00
68077;BME280;54866;53.458;14.540;2023-02-13T00:56:28;102705.98;;;5.24;100.00
68077;BME280;54866;53.458;14.540;2023-02-13T00:58:57;102696.96;;;5.21;100.00
68077;BME280;54866;53.458;14.540;2023-02-13T01:01:26;102703.77;;;5.22;100.00
68077;BME280;54866;53.458;14.540;2023-02-13T01:03:56;102707.10;;;5.20;100.00
68077;BME280;54866;53.458;14.540;2023-02-13T01:06:25;102707.98;;;5.20;100.00
68077;BME280;54866;53.458;14.540;2023-02-13T01:08:55;102708.52;;;5.19;100.00
68077;BME280;54866;53.458;14.540;2023-02-13T01:11:24;102708.54;;;5.18;100.00
68077;BME280;54866;53.458;14.540;2023-02-13T01:13:53;102712.56;;;5.18;100.00
68077;BME280;54866;53.458;14.540;2023-02-13T01:16:23;102707.20;;;5.16;100.00
68077;BME280;54866;53.458;14.540;2023-02-13T01:18:52;102711.90;;;5.16;100.00
68077;BME280;54866;53.458;14.540;2023-02-13T01:21:23;102711.23;;;5.15;100.00
68077;BME280;54866;53.458;14.540;2023-02-13T01:23:52;102706.89;;;5.14;100.00
68077;BME280;54866;53.458;14.540;2023-02-13T01:26:23;102709.48;;;5.15;100.00
68077;BME280;54866;53.458;14.540;2023-02-13T01:28:54;102712.08;;;5.16;100.00
68077;BME280;54866;53.458;14.540;2023-02-13T01:31:25;102713.47;;;5.17;100.00
68077;BME280;54866;53.458;14.540;2023-02-13T01:33:57;102712.61;;;5.16;100.00
68077;BME280;54866;53.458;14.540;2023-02-13T01:36:27;102711.88;;;5.17;100.00
68077;BME280;54866;53.458;14.540;2023-02-13T01:38:57;102709.45;;;5.16;100.00
68077;BME280;54866;53.458;14.540;2023-02-13T01:41:27;102706.86;;;5.15;100.00
68077;BME280;54866;53.458;14.540;2023-02-13T01:43:58;102702.17;;;5.14;100.00
68077;BME280;54866;53.458;14.540;2023-02-13T01:46:30;102702.16;;;5.14;100.00
68077;BME280;54866;53.458;14.540;2023-02-13T01:49:04;102701.69;;;5.12;100.00
68077;BME280;54866;53.458;14.540;2023-02-13T01:51:37;102698.16;;;5.14;100.00
68077;BME280;54866;53.458;14.540;2023-02-13T01:54:11;102697.64;;;5.14;100.00
68077;BME280;54866;53.458;14.540;2023-02-13T01:56:43;102699.24;;;5.12;100.00
68077;BME280;54866;53.458;14.540;2023-02-13T01:59:27;102704.05;;;5.16;100.00
68077;BME280;54866;53.458;14.540;2023-02-13T02:01:58;102701.41;;;5.17;100.00
68077;BME280;54866;53.458;14.540;2023-02-13T02:04:31;102697.56;;;5.17;100.00
68077;BME280;54866;53.458;14.540;2023-02-13T02:07:03;102690.91;;;5.17;100.00
68077;BME280;54866;53.458;14.540;2023-02-13T02:09:37;102691.08;;;5.17;100.00
68077;BME280;54866;53.458;14.540;2023-02-13T02:12:11;102685.68;;;5.17;100.00
68077;BME280;54866;53.458;14.540;2023-02-13T02:14:43;102685.84;;;5.17;100.00
68077;BME280;54866;53.458;14.540;2023-02-13T02:17:12;102681.50;;;5.16;100.00
68077;BME280;54866;53.458;14.540;2023-02-13T02:19:46;102680.12;;;5.15;100.00
68077;BME280;54866;53.458;14.540;2023-02-13T02:22:49;102678.89;;;5.15;100.00
68077;BME280;54866;53.458;14.540;2023-02-13T02:25:41;102669.70;;;5.13;100.00
68077;BME280;54866;53.458;14.540;2023-02-13T02:28:42;102667.76;;;5.14;100.00
68077;BME280;54866;53.458;14.540;2023-02-13T02:34:19;102658.84;;;5.14;100.00
68077;BME280;54866;53.458;14.540;2023-02-13T02:37:06;102659.87;;;5.15;100.00
68077;BME280;54866;53.458;14.540;2023-02-13T02:39:45;102661.42;;;5.15;100.00
68077;BME280;54866;53.458;14.540;2023-02-13T02:42:27;102654.11;;;5.14;100.00
68077;BME280;54866;53.458;14.540;2023-02-13T02:45:07;102658.48;;;5.14;100.00
68077;BME280;54866;53.458;14.540;2023-02-13T02:47:43;102656.61;;;5.12;100.00
68077;BME280;54866;53.458;14.540;2023-02-13T02:50:38;102656.95;;;5.12;100.00
68077;BME280;54866;53.458;14.540;2023-02-13T02:53:19;102652.25;;;5.12;99.96
68077;BME280;54866;53.458;14.540;2023-02-13T02:56:07;102652.62;;;5.11;99.94
68077;BME280;54866;53.458;14.540;2023-02-13T02:58:42;102657.67;;;5.12;99.99
68077;BME280;54866;53.458;14.540;2023-02-13T03:01:34;102651.25;;;5.10;99.99
68077;BME280;54866;53.458;14.540;2023-02-13T03:04:25;102652.34;;;5.09;99.73
68077;BME280;54866;53.458;14.540;2023-02-13T03:07:16;102655.48;;;5.08;99.94
68077;BME280;54866;53.458;14.540;2023-02-13T03:09:50;102648.77;;;5.05;99.65
68077;BME280;54866;53.458;14.540;2023-02-13T03:12:40;102655.38;;;5.06;99.64
68077;BME280;54866;53.458;14.540;2023-02-13T03:15:32;102658.21;;;5.04;99.53
68077;BME280;54866;53.458;14.540;2023-02-13T03:18:03;102653.34;;;5.03;99.40
68077;BME280;54866;53.458;14.540;2023-02-13T03:20:54;102654.57;;;5.02;98.77
68077;BME280;54866;53.458;14.540;2023-02-13T03:23:50;102653.89;;;5.02;97.71
68077;BME280;54866;53.458;14.540;2023-02-13T03:26:34;102653.35;;;5.02;97.66
68077;BME280;54866;53.458;14.540;2023-02-13T03:29:23;102648.98;;;5.02;97.52
68077;BME280;54866;53.458;14.540;2023-02-13T03:32:20;102651.64;;;5.01;97.56
68077;BME280;54866;53.458;14.540;2023-02-13T03:34:59;102655.51;;;5.00;97.13
68077;BME280;54866;53.458;14.540;2023-02-13T03:37:54;102660.89;;;5.01;96.98
68077;BME280;54866;53.458;14.540;2023-02-13T03:40:29;102659.84;;;5.01;96.80
68077;BME280;54866;53.458;14.540;2023-02-13T03:43:07;102658.10;;;5.01;96.69
68077;BME280;54866;53.458;14.540;2023-02-13T03:45:40;102659.13;;;5.01;96.43
68077;BME280;54866;53.458;14.540;2023-02-13T03:48:31;102662.08;;;5.02;95.97
68077;BME280;54866;53.458;14.540;2023-02-13T03:51:23;102660.16;;;5.03;96.18
68077;BME280;54866;53.458;14.540;2023-02-13T03:53:57;102660.16;;;5.03;95.86
68077;BME280;54866;53.458;14.540;2023-02-13T03:56:30;102664.88;;;5.03;95.64
68077;BME280;54866;53.458;14.540;2023-02-13T03:59:23;102660.50;;;5.04;95.56
68077;BME280;54866;53.458;14.540;2023-02-13T04:02:02;102661.38;;;5.03;95.86
68077;BME280;54866;53.458;14.540;2023-02-13T04:04:42;102661.89;;;5.04;95.61
68077;BME280;54866;53.458;14.540;2023-02-13T04:07:16;102653.88;;;5.02;95.17
68077;BME280;54866;53.458;14.540;2023-02-13T04:09:57;102655.83;;;5.01;95.16
68077;BME280;54866;53.458;14.540;2023-02-13T04:12:36;102649.36;;;5.01;94.77
68077;BME280;54866;53.458;14.540;2023-02-13T04:15:11;102652.83;;;5.02;94.88
68077;BME280;54866;53.458;14.540;2023-02-13T04:17:46;102647.52;;;4.98;95.25
68077;BME280;54866;53.458;14.540;2023-02-13T04:20:17;102653.23;;;5.00;95.29
68077;BME280;54866;53.458;14.540;2023-02-13T04:22:47;102649.19;;;5.01;94.79
68077;BME280;54866;53.458;14.540;2023-02-13T04:25:17;102645.90;;;5.00;94.76
68077;BME280;54866;53.458;14.540;2023-02-13T04:27:47;102645.20;;;5.00;94.56
68077;BME280;54866;53.458;14.540;2023-02-13T04:30:17;102648.73;;;4.98;94.64
68077;BME280;54866;53.458;14.540;2023-02-13T04:32:46;102639.70;;;4.96;94.43
68077;BME280;54866;53.458;14.540;2023-02-13T04:35:15;102634.95;;;4.97;94.27
68077;BME280;54866;53.458;14.540;2023-02-13T04:37:45;102639.14;;;4.97;94.47
68077;BME280;54866;53.458;14.540;2023-02-13T04:40:14;102637.06;;;4.96;93.83
68077;BME280;54866;53.458;14.540;2023-02-13T04:42:45;102634.95;;;4.97;93.90
68077;BME280;54866;53.458;14.540;2023-02-13T04:45:15;102635.86;;;4.96;94.07
68077;BME280;54866;53.458;14.540;2023-02-13T04:47:50;102641.99;;;4.95;94.07
68077;BME280;54866;53.458;14.540;2023-02-13T04:50:20;102643.06;;;4.94;94.07
68077;BME280;54866;53.458;14.540;2023-02-13T04:52:50;102647.10;;;4.94;94.09
68077;BME280;54866;53.458;14.540;2023-02-13T04:55:21;102641.36;;;4.93;94.00
68077;BME280;54866;53.458;14.540;2023-02-13T04:57:52;102647.61;;;4.94;93.93
68077;BME280;54866;53.458;14.540;2023-02-13T05:00:24;102648.15;;;4.93;93.62
68077;BME280;54866;53.458;14.540;2023-02-13T05:02:54;102648.84;;;4.94;93.91
68077;BME280;54866;53.458;14.540;2023-02-13T05:05:28;102652.34;;;4.94;93.63
68077;BME280;54866;53.458;14.540;2023-02-13T05:07:57;102658.27;;;4.95;93.70
68077;BME280;54866;53.458;14.540;2023-02-13T05:10:27;102658.10;;;4.94;93.38
68077;BME280;54866;53.458;14.540;2023-02-13T05:12:56;102651.82;;;4.94;93.51
68077;BME280;54866;53.458;14.540;2023-02-13T05:15:25;102654.10;;;4.93;93.22
68077;BME280;54866;53.458;14.540;2023-02-13T05:17:55;102654.10;;;4.93;93.06
68077;BME280;54866;53.458;14.540;2023-02-13T05:20:24;102648.83;;;4.94;92.68
68077;BME280;54866;53.458;14.540;2023-02-13T05:22:54;102656.70;;;4.94;92.40
68077;BME280;54866;53.458;14.540;2023-02-13T05:25:42;102655.82;;;4.94;92.78
68077;BME280;54866;53.458;14.540;2023-02-13T05:28:11;102657.24;;;4.93;92.52
68077;BME280;54866;53.458;14.540;2023-02-13T05:30:55;102660.95;;;4.92;92.66
68077;BME280;54866;53.458;14.540;2023-02-13T05:33:24;102654.83;;;4.92;92.69
68077;BME280;54866;53.458;14.540;2023-02-13T05:35:53;102661.34;;;4.90;92.48
68077;BME280;54866;53.458;14.540;2023-02-13T05:38:23;102660.48;;;4.90;92.41
68077;BME280;54866;53.458;14.540;2023-02-13T05:40:52;102663.97;;;4.90;92.21
68077;BME280;54866;53.458;14.540;2023-02-13T05:43:21;102660.69;;;4.88;92.02
68077;BME280;54866;53.458;14.540;2023-02-13T05:45:51;102657.70;;;4.89;91.65
68077;BME280;54866;53.458;14.540;2023-02-13T05:48:20;102656.49;;;4.88;91.73
68077;BME280;54866;53.458;14.540;2023-02-13T05:50:49;102660.71;;;4.87;91.38
68077;BME280;54866;53.458;14.540;2023-02-13T05:53:18;102673.60;;;4.89;91.25
68077;BME280;54866;53.458;14.540;2023-02-13T05:55:48;102674.11;;;4.89;90.84
68077;BME280;54866;53.458;14.540;2023-02-13T05:58:19;102677.08;;;4.89;90.81
68077;BME280;54866;53.458;14.540;2023-02-13T06:00:49;102684.23;;;4.90;90.45
68077;BME280;54866;53.458;14.540;2023-02-13T06:03:18;102680.72;;;4.91;90.33
68077;BME280;54866;53.458;14.540;2023-02-13T06:05:47;102685.59;;;4.91;89.81
68077;BME280;54866;53.458;14.540;2023-02-13T06:08:17;102687.66;;;4.92;89.90
68077;BME280;54866;53.458;14.540;2023-02-13T06:10:46;102690.10;;;4.92;89.75
68077;BME280;54866;53.458;14.540;2023-02-13T06:13:16;102693.09;;;4.92;89.38
68077;BME280;54866;53.458;14.540;2023-02-13T06:15:45;102699.69;;;4.93;89.13
68077;BME280;54866;53.458;14.540;2023-02-13T06:18:15;102696.02;;;4.93;89.35
68077;BME280;54866;53.458;14.540;2023-02-13T06:20:44;102695.69;;;4.93;88.92
68077;BME280;54866;53.458;14.540;2023-02-13T06:23:13;102696.42;;;4.91;88.54
68077;BME280;54866;53.458;14.540;2023-02-13T06:25:43;102707.02;;;4.93;88.59
68077;BME280;54866;53.458;14.540;2023-02-13T06:28:12;102706.89;;;4.91;88.95
68077;BME280;54866;53.458;14.540;2023-02-13T06:30:42;102706.52;;;4.93;88.89
68077;BME280;54866;53.458;14.540;2023-02-13T06:33:11;102705.64;;;4.93;88.83
68077;BME280;54866;53.458;14.540;2023-02-13T06:35:40;102700.48;;;4.89;88.63
68077;BME280;54866;53.458;14.540;2023-02-13T06:38:10;102704.64;;;4.91;88.62
68077;BME280;54866;53.458;14.540;2023-02-13T06:40:39;102706.41;;;4.90;88.37
68077;BME280;54866;53.458;14.540;2023-02-13T06:43:08;102704.00;;;4.89;88.51
68077;BME280;54866;53.458;14.540;2023-02-13T06:45:38;102702.76;;;4.89;88.41
68077;BME280;54866;53.458;14.540;2023-02-13T06:48:08;102700.86;;;4.88;88.31
68077;BME280;54866;53.458;14.540;2023-02-13T06:50:37;102705.91;;;4.89;88.45
68077;BME280;54866;53.458;14.540;2023-02-13T06:53:06;102707.50;;;4.88;88.33
68077;BME280;54866;53.458;14.540;2023-02-13T06:55:36;102706.98;;;4.87;88.69
68077;BME280;54866;53.458;14.540;2023-02-13T06:58:06;102714.48;;;4.89;88.77
68077;BME280;54866;53.458;14.540;2023-02-13T07:00:35;102715.84;;;4.90;88.43
68077;BME280;54866;53.458;14.540;2023-02-13T07:03:06;102711.13;;;4.90;88.27
68077;BME280;54866;53.458;14.540;2023-02-13T07:05:39;102715.11;;;4.91;88.43
68077;BME280;54866;53.458;14.540;2023-02-13T07:08:10;102715.13;;;4.90;88.24
68077;BME280;54866;53.458;14.540;2023-02-13T07:10:40;102717.92;;;4.90;88.28
68077;BME280;54866;53.458;14.540;2023-02-13T07:13:10;102717.03;;;4.91;88.39
68077;BME280;54866;53.458;14.540;2023-02-13T07:15:40;102727.14;;;4.92;88.41
68077;BME280;54866;53.458;14.540;2023-02-13T07:18:09;102726.28;;;4.91;88.27
68077;BME280;54866;53.458;14.540;2023-02-13T07:20:39;102721.57;;;4.91;88.52
68077;BME280;54866;53.458;14.540;2023-02-13T07:23:08;102728.18;;;4.92;88.58
68077;BME280;54866;53.458;14.540;2023-02-13T07:25:38;102727.99;;;4.93;88.73
68077;BME280;54866;53.458;14.540;2023-02-13T07:28:08;102727.82;;;4.93;88.37
68077;BME280;54866;53.458;14.540;2023-02-13T07:30:37;102726.57;;;4.94;88.33
68077;BME280;54866;53.458;14.540;2023-02-13T07:33:07;102724.62;;;4.95;88.34
68077;BME280;54866;53.458;14.540;2023-02-13T07:35:37;102724.60;;;4.96;88.09
68077;BME280;54866;53.458;14.540;2023-02-13T07:38:08;102722.64;;;4.98;87.95
68077;BME280;54866;53.458;14.540;2023-02-13T07:40:37;102726.26;;;4.99;87.86
68077;BME280;54866;53.458;14.540;2023-02-13T07:43:06;102724.70;;;4.99;87.32
68077;BME280;54866;53.458;14.540;2023-02-13T07:45:35;102724.48;;;5.01;87.61
68077;BME280;54866;53.458;14.540;2023-02-13T07:48:05;102727.95;;;5.01;87.33
68077;BME280;54866;53.458;14.540;2023-02-13T07:50:34;102732.30;;;5.02;87.32
68077;BME280;54866;53.458;14.540;2023-02-13T07:53:04;102735.98;;;5.03;87.03
68077;BME280;54866;53.458;14.540;2023-02-13T07:55:33;102738.21;;;5.05;87.06
68077;BME280;54866;53.458;14.540;2023-02-13T07:58:02;102739.41;;;5.06;87.10
68077;BME280;54866;53.458;14.540;2023-02-13T08:00:31;102744.11;;;5.07;87.00
68077;BME280;54866;53.458;14.540;2023-02-13T08:03:01;102747.73;;;5.09;86.96
68077;BME280;54866;53.458;14.540;2023-02-13T08:05:31;102748.59;;;5.09;86.75
68077;BME280;54866;53.458;14.540;2023-02-13T08:08:01;102748.07;;;5.09;86.71
68077;BME280;54866;53.458;14.540;2023-02-13T08:10:31;102746.23;;;5.13;86.47
68077;BME280;54866;53.458;14.540;2023-02-13T08:13:18;102745.84;;;5.15;86.19
68077;BME280;54866;53.458;14.540;2023-02-13T08:15:48;102745.83;;;5.15;86.22
68077;BME280;54866;53.458;14.540;2023-02-13T08:18:17;102747.36;;;5.17;85.94
68077;BME280;54866;53.458;14.540;2023-02-13T08:20:46;102750.46;;;5.18;86.29
68077;BME280;54866;53.458;14.540;2023-02-13T08:23:16;102747.48;;;5.20;86.26
68077;BME280;54866;53.458;14.540;2023-02-13T08:25:45;102748.69;;;5.21;86.04
68077;BME280;54866;53.458;14.540;2023-02-13T08:28:17;102750.04;;;5.23;85.86
68077;BME280;54866;53.458;14.540;2023-02-13T08:30:46;102742.86;;;5.23;85.78
68077;BME280;54866;53.458;14.540;2023-02-13T08:33:15;102748.08;;;5.25;85.74
68077;BME280;54866;53.458;14.540;2023-02-13T08:35:45;102748.19;;;5.27;85.67
68077;BME280;54866;53.458;14.540;2023-02-13T08:38:14;102748.48;;;5.29;85.69
68077;BME280;54866;53.458;14.540;2023-02-13T08:40:43;102745.99;;;5.31;85.51
68077;BME280;54866;53.458;14.540;2023-02-13T08:43:12;102748.56;;;5.33;85.57
68077;BME280;54866;53.458;14.540;2023-02-13T08:45:42;102747.98;;;5.35;85.17
68077;BME280;54866;53.458;14.540;2023-02-13T08:48:11;102745.34;;;5.36;85.07
68077;BME280;54866;53.458;14.540;2023-02-13T08:50:40;102749.66;;;5.39;84.77
68077;BME280;54866;53.458;14.540;2023-02-13T08:53:10;102748.58;;;5.40;84.39
68077;BME280;54866;53.458;14.540;2023-02-13T08:55:39;102754.50;;;5.42;84.41
68077;BME280;54866;53.458;14.540;2023-02-13T08:58:09;102754.11;;;5.43;84.76
68077;BME280;54866;53.458;14.540;2023-02-13T09:00:38;102752.88;;;5.43;84.61
68077;BME280;54866;53.458;14.540;2023-02-13T09:03:07;102753.35;;;5.45;84.55
68077;BME280;54866;53.458;14.540;2023-02-13T09:05:37;102754.54;;;5.47;84.42
68077;BME280;54866;53.458;14.540;2023-02-13T09:08:06;102752.41;;;5.48;84.40
68077;BME280;54866;53.458;14.540;2023-02-13T09:10:39;102752.71;;;5.50;84.18
68077;BME280;54866;53.458;14.540;2023-02-13T09:13:10;102753.53;;;5.52;84.01
68077;BME280;54866;53.458;14.540;2023-02-13T09:15:40;102745.33;;;5.51;83.58
68077;BME280;54866;53.458;14.540;2023-02-13T09:18:10;102745.25;;;5.55;83.72
68077;BME280;54866;53.458;14.540;2023-02-13T09:20:39;102750.63;;;5.57;83.33
68077;BME280;54866;53.458;14.540;2023-02-13T09:23:08;102755.85;;;5.58;82.82
68077;BME280;54866;53.458;14.540;2023-02-13T09:25:38;102752.83;;;5.60;82.88
68077;BME280;54866;53.458;14.540;2023-02-13T09:28:07;102753.27;;;5.63;82.82
68077;BME280;54866;53.458;14.540;2023-02-13T09:30:36;102754.80;;;5.65;82.68
68077;BME280;54866;53.458;14.540;2023-02-13T09:33:10;102756.13;;;5.67;82.66
68077;BME280;54866;53.458;14.540;2023-02-13T09:35:40;102755.36;;;5.69;82.64
68077;BME280;54866;53.458;14.540;2023-02-13T09:38:09;102755.30;;;5.72;81.95
68077;BME280;54866;53.458;14.540;2023-02-13T09:40:44;102755.52;;;5.71;81.82
68077;BME280;54866;53.458;14.540;2023-02-13T09:43:20;102754.39;;;5.74;81.93
68077;BME280;54866;53.458;14.540;2023-02-13T09:45:52;102756.11;;;5.76;81.69
68077;BME280;54866;53.458;14.540;2023-02-13T09:48:29;102757.66;;;5.76;81.19
68077;BME280;54866;53.458;14.540;2023-02-13T09:50:59;102756.77;;;5.78;81.16
68077;BME280;54866;53.458;14.540;2023-02-13T09:53:29;102754.59;;;5.80;81.04
68077;BME280;54866;53.458;14.540;2023-02-13T09:56:07;102753.32;;;5.82;80.85
68077;BME280;54866;53.458;14.540;2023-02-13T09:58:43;102748.72;;;5.84;80.68
68077;BME280;54866;53.458;14.540;2023-02-13T10:01:22;102750.56;;;5.87;80.93
68077;BME280;54866;53.458;14.540;2023-02-13T10:04:16;102751.56;;;5.89;80.63
68077;BME280;54866;53.458;14.540;2023-02-13T10:06:52;102751.02;;;5.92;80.34
68077;BME280;54866;53.458;14.540;2023-02-13T10:09:32;102755.17;;;5.93;79.79
68077;BME280;54866;53.458;14.540;2023-02-13T10:12:18;102756.30;;;5.96;80.05
68077;BME280;54866;53.458;14.540;2023-02-13T10:14:57;102755.71;;;5.98;80.10
68077;BME280;54866;53.458;14.540;2023-02-13T10:17:33;102750.05;;;6.01;79.76
68077;BME280;54866;53.458;14.540;2023-02-13T10:20:09;102750.88;;;6.03;79.55
68077;BME280;54866;53.458;14.540;2023-02-13T10:22:47;102744.33;;;6.06;79.76
68077;BME280;54866;53.458;14.540;2023-02-13T10:25:23;102738.67;;;6.08;79.54
68077;BME280;54866;53.458;14.540;2023-02-13T10:27:56;102739.09;;;6.12;79.50
68077;BME280;54866;53.458;14.540;2023-02-13T10:30:31;102738.80;;;6.16;79.30
68077;BME280;54866;53.458;14.540;2023-02-13T10:33:05;102740.84;;;6.19;78.72
68077;BME280;54866;53.458;14.540;2023-02-13T10:35:52;102732.60;;;6.19;78.15
68077;BME280;54866;53.458;14.540;2023-02-13T10:38:26;102732.19;;;6.21;78.31
68077;BME280;54866;53.458;14.540;2023-02-13T10:41:05;102729.83;;;6.24;78.27
68077;BME280;54866;53.458;14.540;2023-02-13T10:43:44;102731.45;;;6.29;78.50
68077;BME280;54866;53.458;14.540;2023-02-13T10:46:23;102737.83;;;6.33;77.66
68077;BME280;54866;53.458;14.540;2023-02-13T10:49:17;102735.47;;;6.35;78.06
68077;BME280;54866;53.458;14.540;2023-02-13T10:51:57;102733.79;;;6.39;78.15
68077;BME280;54866;53.458;14.540;2023-02-13T10:54:50;102732.34;;;6.41;78.11
68077;BME280;54866;53.458;14.540;2023-02-13T10:57:27;102735.39;;;6.45;77.99
68077;BME280;54866;53.458;14.540;2023-02-13T11:00:11;102734.32;;;6.46;77.36
68077;BME280;54866;53.458;14.540;2023-02-13T11:02:44;102737.05;;;6.48;77.37
68077;BME280;54866;53.458;14.540;2023-02-13T11:05:17;102733.36;;;6.48;77.07
68077;BME280;54866;53.458;14.540;2023-02-13T11:07:48;102731.51;;;6.46;76.95
68077;BME280;54866;53.458;14.540;2023-02-13T11:10:20;102732.69;;;6.48;76.58
68077;BME280;54866;53.458;14.540;2023-02-13T11:12:50;102727.41;;;6.48;76.34
68077;BME280;54866;53.458;14.540;2023-02-13T11:15:25;102721.77;;;6.50;76.75
68077;BME280;54866;53.458;14.540;2023-02-13T11:17:57;102718.23;;;6.51;76.07
68077;BME280;54866;53.458;14.540;2023-02-13T11:20:33;102719.11;;;6.51;76.66
68077;BME280;54866;53.458;14.540;2023-02-13T11:23:23;102716.11;;;6.51;76.42
68077;BME280;54866;53.458;14.540;2023-02-13T11:25:58;102720.63;;;6.53;76.99
68077;BME280;54866;53.458;14.540;2023-02-13T11:28:30;102726.63;;;6.57;76.72
68077;BME280;54866;53.458;14.540;2023-02-13T11:31:18;102723.42;;;6.59;76.85
68077;BME280;54866;53.458;14.540;2023-02-13T11:33:49;102723.86;;;6.62;77.16
68077;BME280;54866;53.458;14.540;2023-02-13T11:36:25;102720.29;;;6.65;77.04
68077;BME280;54866;53.458;14.540;2023-02-13T11:39:09;102721.31;;;6.65;76.80
68077;BME280;54866;53.458;14.540;2023-02-13T11:41:46;102720.42;;;6.66;76.53
68077;BME280;54866;53.458;14.540;2023-02-13T11:44:24;102721.11;;;6.67;76.51
68077;BME280;54866;53.458;14.540;2023-02-13T11:46:55;102717.34;;;6.63;75.63
68077;BME280;54866;53.458;14.540;2023-02-13T11:49:26;102715.78;;;6.63;75.89
68077;BME280;54866;53.458;14.540;2023-02-13T11:51:57;102719.16;;;6.61;76.04
68077;BME280;54866;53.458;14.540;2023-02-13T11:54:31;102718.13;;;6.61;76.07
68077;BME280;54866;53.458;14.540;2023-02-13T11:57:08;102718.51;;;6.59;75.89
68077;BME280;54866;53.458;14.540;2023-02-13T11:59:46;102719.20;;;6.60;76.24
68077;BME280;54866;53.458;14.540;2023-02-13T12:02:18;102719.20;;;6.60;76.49
68077;BME280;54866;53.458;14.540;2023-02-13T12:04:50;102718.31;;;6.59;76.16
68077;BME280;54866;53.458;14.540;2023-02-13T12:07:23;102718.33;;;6.59;76.14
68077;BME280;54866;53.458;14.540;2023-02-13T12:09:58;102718.69;;;6.59;76.23
68077;BME280;54866;53.458;14.540;2023-02-13T12:12:34;102720.08;;;6.60;76.40
68077;BME280;54866;53.458;14.540;2023-02-13T12:15:16;102716.94;;;6.58;76.38
68077;BME280;54866;53.458;14.540;2023-02-13T12:17:48;102719.91;;;6.58;75.96
68077;BME280;54866;53.458;14.540;2023-02-13T12:20:21;102719.95;;;6.57;76.28
68077;BME280;54866;53.458;14.540;2023-02-13T12:23:01;102721.55;;;6.57;76.24
68077;BME280;54866;53.458;14.540;2023-02-13T12:25:40;102714.41;;;6.56;76.70
68077;BME280;54866;53.458;14.540;2023-02-13T12:28:15;102711.31;;;6.60;76.55
68077;BME280;54866;53.458;14.540;2023-02-13T12:30:57;102710.92;;;6.61;76.42
68077;BME280;54866;53.458;14.540;2023-02-13T12:33:43;102706.54;;;6.62;76.38
68077;BME280;54866;53.458;14.540;2023-02-13T12:36:20;102700.39;;;6.62;76.58
68077;BME280;54866;53.458;14.540;2023-02-13T12:38:59;102697.94;;;6.62;76.02
68077;BME280;54866;53.458;14.540;2023-02-13T12:41:37;102701.02;;;6.65;75.83
68077;BME280;54866;53.458;14.540;2023-02-13T12:47:16;102696.81;;;6.65;74.95
68077;BME280;54866;53.458;14.540;2023-02-13T12:50:01;102698.23;;;6.64;74.17
68077;BME280;54866;53.458;14.540;2023-02-13T12:52:41;102696.38;;;6.62;74.01
68077;BME280;54866;53.458;14.540;2023-02-13T12:55:21;102697.09;;;6.62;74.69
68077;BME280;54866;53.458;14.540;2023-02-13T12:58:02;102681.98;;;6.63;74.06
68077;BME280;54866;53.458;14.540;2023-02-13T13:00:43;102670.27;;;6.62;73.50
68077;BME280;54866;53.458;14.540;2023-02-13T13:03:31;102669.02;;;6.63;73.21
68077;BME280;54866;53.458;14.540;2023-02-13T13:06:13;102657.70;;;6.61;72.79
68077;BME280;54866;53.458;14.540;2023-02-13T13:09:02;102658.41;;;6.61;72.92
68077;BME280;54866;53.458;14.540;2023-02-13T13:11:56;102651.94;;;6.60;72.51
68077;BME280;54866;53.458;14.540;2023-02-13T13:14:36;102652.31;;;6.58;72.19
68077;BME280;54866;53.458;14.540;2023-02-13T13:17:16;102657.77;;;6.58;72.80
68077;BME280;54866;53.458;14.540;2023-02-13T13:19:54;102647.99;;;6.57;72.60
68077;BME280;54866;53.458;14.540;2023-02-13T13:22:33;102638.79;;;6.54;72.46
68077;BME280;54866;53.458;14.540;2023-02-13T13:25:13;102637.54;;;6.55;72.68
68077;BME280;54866;53.458;14.540;2023-02-13T13:27:51;102640.85;;;6.55;73.04
68077;BME280;54866;53.458;14.540;2023-02-13T13:30:25;102648.03;;;6.56;72.99